Time;durP1;ratioP1;P1;durP2;ratioP2;P2;SDS_P1;SDS_P2;PMS_P1;PMS_P2;Temp;Humidity;BMP_temperature;BMP_pressure;BME280_temperature;BME280_humidity;BME280_pressure;Samples;Min_cycle;Max_cycle;Signal;HPM_P1;HPM_P2
2022/01/20 00:01:55;;;;;;;;;31.00;29.50;;;;;7.91;74.97;102050.97;5056703;28;45376;-70
2022/01/20 00:27:08;;;;;;;;;24.75;24.25;;;;;7.95;74.81;102085.03;5036540;28;45519;-69
2022/01/20 00:30:00;;;;;;;;;30.75;26.00;;;;;7.93;74.22;102068.44;5036381;28;45379;-71
2022/01/20 00:32:25;;;;;;;;;26.00;26.00;;;;;7.94;74.33;102062.31;5054344;28;46017;-68
2022/01/20 00:37:30;;;;;;;;;23.50;23.50;;;;;7.93;74.14;102054.47;5056632;28;45480;-68
2022/01/20 00:39:57;;;;;;;;;28.50;25.75;;;;;7.95;74.59;102052.69;5061025;28;45365;-69
2022/01/20 00:42:23;;;;;;;;;46.00;41.00;;;;;7.93;74.60;102051.84;5056791;28;45438;-68
2022/01/20 00:44:49;;;;;;;;;25.25;23.25;;;;;7.93;73.81;102044.00;5055864;28;45514;-68
2022/01/20 00:47:17;;;;;;;;;30.25;28.50;;;;;7.91;73.90;102043.97;5055017;28;45541;-68
2022/01/20 00:49:43;;;;;;;;;31.75;27.00;;;;;7.91;74.10;102048.34;5054534;28;45658;-69
2022/01/20 00:52:09;;;;;;;;;29.75;26.50;;;;;7.91;73.82;102064.06;5051764;28;46066;-68
2022/01/20 00:54:35;;;;;;;;;25.00;24.50;;;;;7.92;73.91;102057.94;5055143;28;45527;-68
2022/01/20 00:57:01;;;;;;;;;31.25;27.75;;;;;7.91;73.42;102057.06;5054650;28;45562;-67
2022/01/20 00:59:30;;;;;;;;;27.25;23.50;;;;;7.90;74.10;102050.09;5054537;28;45552;-68
2022/01/20 01:02:01;;;;;;;;;26.00;24.25;;;;;7.90;73.78;102051.84;5055060;28;45641;-66
2022/01/20 01:04:27;;;;;;;;;30.75;27.50;;;;;7.90;73.58;102041.38;5054920;28;45558;-67
2022/01/20 01:09:22;;;;;;;;;26.50;26.50;;;;;7.88;73.77;102049.22;5055153;28;45637;-65
2022/01/20 01:11:50;;;;;;;;;28.25;22.00;;;;;7.89;73.85;102060.56;5055400;28;46126;-67
2022/01/20 01:14:17;;;;;;;;;26.75;24.50;;;;;7.87;73.29;102073.69;5037321;28;45475;-68
2022/01/20 01:24:30;;;;;;;;;21.00;18.50;;;;;7.75;72.79;102069.31;5052485;28;45433;-67
2022/01/20 01:26:55;;;;;;;;;18.75;17.50;;;;;7.80;72.62;102092.03;5055688;28;45465;-67
2022/01/20 01:29:44;;;;;;;;;23.50;18.00;;;;;7.75;72.33;102092.88;5055678;28;45620;-67
2022/01/20 01:32:12;;;;;;;;;21.25;19.25;;;;;7.75;72.18;102099.88;5055190;28;45915;-67
2022/01/20 01:34:40;;;;;;;;;21.25;20.00;;;;;7.74;72.70;102100.75;5055191;28;45531;-67
2022/01/20 01:37:14;;;;;;;;;18.50;18.00;;;;;7.70;72.54;102096.38;5055868;28;45477;-67
2022/01/20 01:39:40;;;;;;;;;21.75;20.75;;;;;7.72;72.19;102107.72;5037020;28;45548;-67
2022/01/20 01:42:08;;;;;;;;;22.00;19.00;;;;;7.71;72.52;102104.25;5054896;28;46473;-67
2022/01/20 01:44:33;;;;;;;;;17.25;16.00;;;;;7.72;72.48;102100.72;5055317;28;45432;-67
2022/01/20 01:46:59;;;;;;;;;22.75;20.75;;;;;7.72;72.15;102105.97;5055655;28;45807;-67
2022/01/20 01:49:24;;;;;;;;;24.75;23.75;;;;;7.68;72.80;102105.97;5055494;28;45368;-67
2022/01/20 01:51:50;;;;;;;;;24.50;23.00;;;;;7.68;72.57;102109.47;5054834;28;46107;-67
2022/01/20 01:54:17;;;;;;;;;17.75;17.75;;;;;7.65;72.46;102119.91;5055309;28;45325;-66
2022/01/20 01:56:44;;;;;;;;;16.50;16.50;;;;;7.66;72.47;102126.06;5055417;28;45496;-66
2022/01/20 01:59:18;;;;;;;;;12.75;12.75;;;;;7.65;72.71;102135.63;5055631;28;45446;-67
2022/01/20 02:01:49;;;;;;;;;19.75;18.00;;;;;7.61;72.06;102141.75;5055846;28;47853;-67
2022/01/20 02:04:18;;;;;;;;;23.00;17.75;;;;;7.58;72.36;102147.00;5062020;28;45400;-66
2022/01/20 02:09:38;;;;;;;;;18.75;18.75;;;;;7.56;72.07;102151.34;5062161;28;45464;-66
2022/01/20 02:20:25;;;;;;;;;15.25;13.75;;;;;7.46;71.77;102153.03;5061970;28;45439;-66
2022/01/20 02:23:14;;;;;;;;;16.00;14.00;;;;;7.46;72.27;102162.66;5061564;28;45349;-67
2022/01/20 02:25:45;;;;;;;;;16.75;15.50;;;;;7.46;71.64;102153.03;5061234;28;45496;-66
2022/01/20 02:28:16;;;;;;;;;19.00;16.50;;;;;7.44;72.24;102151.28;5061783;28;45396;-66
2022/01/20 02:31:03;;;;;;;;;25.00;20.25;;;;;7.41;71.42;102146.94;5061685;28;45532;-65
2022/01/20 02:33:34;;;;;;;;;22.75;19.50;;;;;7.41;71.06;102162.63;5061574;28;46020;-66
2022/01/20 02:36:27;;;;;;;;;19.75;15.50;;;;;7.35;71.30;102161.75;5061310;28;45469;-66
2022/01/20 02:39:06;;;;;;;;;15.50;15.25;;;;;7.35;71.56;102167.00;5061872;28;45526;-66
2022/01/20 02:47:12;;;;;;;;;12.00;11.00;;;;;7.32;71.08;102152.16;5061107;28;45450;-65
2022/01/20 02:49:37;;;;;;;;;16.00;14.00;;;;;7.33;70.12;102150.41;5062361;28;45450;-67
2022/01/20 02:52:03;;;;;;;;;14.00;13.00;;;;;7.31;70.68;102145.19;5061462;28;45401;-66
2022/01/20 02:54:28;;;;;;;;;15.00;12.00;;;;;7.30;70.20;102140.78;5061223;28;46319;-67
2022/01/20 02:56:53;;;;;;;;;14.00;12.00;;;;;7.32;70.04;102139.06;5061882;28;45440;-67
2022/01/20 02:59:19;;;;;;;;;16.75;14.75;;;;;7.29;70.15;102144.28;5061407;28;45553;-68
2022/01/20 03:01:44;;;;;;;;;16.75;12.75;;;;;7.25;70.35;102135.56;5061710;28;45591;-68
2022/01/20 03:04:11;;;;;;;;;18.75;15.75;;;;;7.25;70.43;102138.19;5061200;28;45439;-66
2022/01/20 03:06:36;;;;;;;;;13.00;12.00;;;;;7.26;70.28;102144.28;5061288;28;45496;-67
2022/01/20 03:09:02;;;;;;;;;17.50;14.50;;;;;7.25;70.47;102142.53;5061063;28;45592;-66
2022/01/20 03:11:28;;;;;;;;;15.75;12.75;;;;;7.25;69.42;102145.13;5061580;28;45693;-66
2022/01/20 03:13:53;;;;;;;;;13.50;12.00;;;;;7.21;70.15;102144.25;5058998;28;45416;-67
2022/01/20 03:16:19;;;;;;;;;13.00;13.00;;;;;7.20;69.99;102142.53;5057942;28;45459;-67
2022/01/20 03:18:44;;;;;;;;;12.25;11.75;;;;;7.21;69.63;102157.34;5039960;28;45483;-66
2022/01/20 03:21:09;;;;;;;;;14.00;11.25;;;;;7.23;69.61;102162.59;5057562;28;45414;-67
2022/01/20 03:23:35;;;;;;;;;12.50;11.75;;;;;7.20;68.92;102166.06;5057814;28;46129;-66
2022/01/20 03:26:00;;;;;;;;;10.75;9.25;;;;;7.18;69.53;102165.19;5057787;28;45579;-66
2022/01/20 03:28:25;;;;;;;;;14.75;12.00;;;;;7.16;68.76;102168.66;5057674;28;45546;-66
2022/01/20 03:30:51;;;;;;;;;12.50;12.00;;;;;7.17;68.87;102176.50;5057534;28;45509;-66
2022/01/20 03:33:16;;;;;;;;;15.50;14.50;;;;;7.20;68.99;102178.25;5057204;28;46552;-66
2022/01/20 03:35:42;;;;;;;;;11.00;11.00;;;;;7.16;68.51;102166.06;5056729;28;45449;-66
2022/01/20 03:38:08;;;;;;;;;11.75;8.75;;;;;7.16;68.63;102169.53;5057435;28;45313;-66
2022/01/20 03:40:34;;;;;;;;;10.25;10.25;;;;;7.17;68.54;102178.25;5057373;28;45411;-66
2022/01/20 03:42:59;;;;;;;;;13.00;13.00;;;;;7.16;67.89;102184.38;5057230;28;45567;-67
2022/01/20 03:45:27;;;;;;;;;8.25;8.25;;;;;7.17;69.20;102184.34;5057628;28;45412;-68
2022/01/20 03:47:55;;;;;;;;;16.50;14.25;;;;;7.16;69.16;102181.75;5057458;28;45542;-68
2022/01/20 03:53:06;;;;;;;;;16.50;15.25;;;;;7.08;68.95;102174.72;5036654;28;45522;-67
2022/01/20 03:55:31;;;;;;;;;16.25;15.25;;;;;7.07;69.06;102182.59;5037101;28;45415;-67
2022/01/20 03:57:57;;;;;;;;;16.50;15.00;;;;;7.04;69.26;102182.56;5055229;28;45297;-67
2022/01/20 04:00:22;;;;;;;;;18.00;15.25;;;;;7.00;69.02;102181.66;5057445;28;45528;-67
2022/01/20 04:02:47;;;;;;;;;16.50;15.75;;;;;6.96;69.56;102181.63;5057153;28;46772;-67
2022/01/20 04:05:13;;;;;;;;;13.75;12.75;;;;;6.99;69.06;102189.53;5056938;28;45357;-65
2022/01/20 04:07:38;;;;;;;;;18.25;16.50;;;;;6.96;69.95;102190.38;5057157;28;45384;-65
2022/01/20 04:10:04;;;;;;;;;18.00;15.75;;;;;6.97;69.38;102191.25;5057386;28;45351;-66
2022/01/20 04:12:30;;;;;;;;;15.00;14.50;;;;;6.97;69.48;102192.13;5057022;28;45672;-66
2022/01/20 04:14:55;;;;;;;;;10.75;10.75;;;;;6.95;69.36;102193.84;5056702;28;45367;-66
2022/01/20 04:17:21;;;;;;;;;10.50;10.50;;;;;6.89;69.45;102198.19;5057151;28;45412;-67
2022/01/20 04:19:47;;;;;;;;;12.00;12.00;;;;;6.86;69.11;102209.50;5057010;28;45392;-66
2022/01/20 04:22:13;;;;;;;;;14.00;12.25;;;;;6.81;69.45;102196.38;5056654;28;46097;-67
2022/01/20 04:24:39;;;;;;;;;9.75;4.50;;;;;6.84;69.04;102211.22;5056815;28;45408;-67
2022/01/20 04:27:04;;;;;;;;;13.25;11.25;;;;;6.84;69.54;102208.59;5055308;28;45492;-68
2022/01/20 04:29:30;;;;;;;;;13.50;11.25;;;;;6.86;69.22;102209.50;5056826;28;45451;-67
2022/01/20 04:31:55;;;;;;;;;13.75;12.00;;;;;6.86;69.34;102206.88;5056767;28;45489;-67
2022/01/20 04:34:21;;;;;;;;;13.00;13.00;;;;;6.84;69.18;102209.47;5056723;28;45398;-67
2022/01/20 04:36:49;;;;;;;;;11.50;11.50;;;;;6.86;69.12;102212.97;5056766;28;45389;-67
2022/01/20 04:39:19;;;;;;;;;8.50;8.50;;;;;6.88;69.21;102202.53;5055849;28;45396;-67
2022/01/20 04:41:45;;;;;;;;;12.50;11.00;;;;;6.84;69.04;102199.00;5056324;28;46313;-67
2022/01/20 04:44:18;;;;;;;;;14.75;12.75;;;;;6.86;68.53;102205.13;5056173;28;45478;-68
2022/01/20 04:57:03;;;;;;;;;13.25;10.25;;;;;6.82;68.46;102203.38;5055595;28;45538;-68
2022/01/20 04:57:24;;;;;;;;;7.00;7.00;;;;;6.84;68.05;102224.28;5016039;28;45467;-67
2022/01/20 04:59:51;;;;;;;;;10.00;10.00;;;;;6.84;67.72;102232.16;5015260;28;45496;-67
2022/01/20 05:02:18;;;;;;;;;12.25;7.75;;;;;6.82;68.13;102226.91;5015670;28;46116;-67
2022/01/20 05:04:44;;;;;;;;;12.00;10.00;;;;;6.80;67.58;102220.81;5015860;28;45616;-67
2022/01/20 05:07:17;;;;;;;;;7.00;6.50;;;;;6.79;67.73;102216.41;5016219;28;45397;-67
2022/01/20 05:09:43;;;;;;;;;11.75;7.50;;;;;6.79;68.38;102213.78;5014390;28;45358;-68
2022/01/20 05:12:12;;;;;;;;;9.25;9.25;;;;;6.81;67.80;102214.69;5014340;28;46012;-67
2022/01/20 05:14:38;;;;;;;;;10.25;8.50;;;;;6.81;67.49;102217.31;5016294;28;45439;-67
2022/01/20 05:17:04;;;;;;;;;7.00;7.00;;;;;6.81;67.81;102217.31;5015763;28;45544;-67
2022/01/20 05:19:31;;;;;;;;;10.75;10.00;;;;;6.82;67.52;102211.22;4996205;28;45664;-67
2022/01/20 05:21:58;;;;;;;;;7.50;7.50;;;;;6.82;67.88;102207.72;5002471;28;46060;-67
2022/01/20 05:24:23;;;;;;;;;9.00;9.00;;;;;6.80;67.38;102199.88;5015727;28;45531;-65
2022/01/20 05:26:54;;;;;;;;;9.50;6.75;;;;;6.81;66.76;102205.97;5012377;28;45421;-65
2022/01/20 05:29:20;;;;;;;;;6.00;6.00;;;;;6.81;67.24;102211.22;5016129;28;45473;-67
2022/01/20 05:31:46;;;;;;;;;7.00;7.00;;;;;6.77;67.27;102210.31;5014955;28;45511;-65
2022/01/20 05:34:12;;;;;;;;;8.00;7.00;;;;;6.80;66.56;102214.69;5015617;28;45448;-66
2022/01/20 05:36:37;;;;;;;;;9.00;9.00;;;;;6.80;66.91;102215.56;5015292;28;45437;-65
2022/01/20 05:39:04;;;;;;;;;11.00;9.00;;;;;6.79;66.45;102219.03;5015291;28;45734;-66
2022/01/20 05:41:29;;;;;;;;;5.25;5.25;;;;;6.80;66.87;102227.78;5015486;28;46174;-66
2022/01/20 05:43:56;;;;;;;;;6.25;6.25;;;;;6.79;66.71;102233.84;5014963;28;45453;-66
2022/01/20 05:46:24;;;;;;;;;8.50;8.25;;;;;6.78;67.05;102237.34;5014519;28;45488;-66
2022/01/20 05:48:50;;;;;;;;;9.50;9.00;;;;;6.78;67.03;102237.34;5015080;28;45563;-67
2022/01/20 05:51:16;;;;;;;;;8.00;7.25;;;;;6.79;67.07;102239.94;5015438;28;45988;-67
2022/01/20 05:53:42;;;;;;;;;8.00;8.00;;;;;6.79;66.64;102237.34;5043727;28;45870;-67
2022/01/20 05:56:08;;;;;;;;;7.00;6.75;;;;;6.74;66.33;102244.28;5036970;28;45429;-67
2022/01/20 05:58:37;;;;;;;;;6.50;6.50;;;;;6.75;66.80;102239.94;5055577;28;45670;-66
2022/01/20 06:01:07;;;;;;;;;8.25;6.50;;;;;6.78;65.86;102253.03;5036196;28;45498;-66
2022/01/20 06:03:36;;;;;;;;;7.75;5.75;;;;;6.72;65.64;102247.78;5055390;28;45407;-67
2022/01/20 06:06:03;;;;;;;;;5.50;5.50;;;;;6.69;65.55;102252.94;5054769;28;45380;-67
2022/01/20 06:08:29;;;;;;;;;6.50;5.25;;;;;6.66;66.22;102248.56;5055528;28;45615;-66
2022/01/20 06:10:54;;;;;;;;;5.75;5.75;;;;;6.69;65.76;102252.94;5054871;28;46100;-66
2022/01/20 06:13:19;;;;;;;;;8.25;6.50;;;;;6.63;65.33;102249.41;5055255;28;45490;-67
2022/01/20 06:15:45;;;;;;;;;6.75;6.25;;;;;6.64;65.62;102264.25;5054591;28;45436;-66
2022/01/20 06:18:11;;;;;;;;;5.00;5.00;;;;;6.64;65.15;102255.56;5055158;28;45571;-67
2022/01/20 06:20:37;;;;;;;;;6.00;5.25;;;;;6.63;65.35;102253.78;5055222;28;45508;-66
2022/01/20 06:23:05;;;;;;;;;7.00;6.00;;;;;6.63;65.67;102256.41;5055283;28;45388;-67
2022/01/20 06:25:31;;;;;;;;;6.00;6.00;;;;;6.66;65.33;102261.63;5037150;28;45465;-67
2022/01/20 06:27:56;;;;;;;;;5.00;5.00;;;;;6.68;66.10;102261.66;5055077;28;45497;-67
2022/01/20 06:30:22;;;;;;;;;6.25;6.25;;;;;6.70;65.59;102265.19;5055084;28;45419;-68
2022/01/20 06:32:47;;;;;;;;;6.25;6.00;;;;;6.66;65.70;102264.25;5055066;28;45531;-67
2022/01/20 06:35:12;;;;;;;;;10.00;6.75;;;;;6.64;65.56;102261.66;5055386;28;45447;-66
2022/01/20 06:37:38;;;;;;;;;6.50;5.25;;;;;6.64;65.66;102260.78;5055069;28;45467;-66
2022/01/20 06:40:06;;;;;;;;;7.50;7.50;;;;;6.65;65.72;102270.34;5035857;28;45935;-66
2022/01/20 06:42:31;;;;;;;;;7.00;5.75;;;;;6.63;66.07;102269.47;5054639;28;45486;-66
2022/01/20 06:44:57;;;;;;;;;7.50;7.00;;;;;6.69;65.71;102281.72;5036549;28;45510;-66
2022/01/20 06:47:22;;;;;;;;;10.25;8.50;;;;;6.66;66.25;102281.69;5036732;28;45406;-66
2022/01/20 06:49:47;;;;;;;;;7.50;7.25;;;;;6.69;65.83;102284.31;5056114;28;45475;-65
2022/01/20 06:52:13;;;;;;;;;6.75;5.50;;;;;6.65;65.96;102280.81;5057810;28;45470;-67
2022/01/20 06:54:38;;;;;;;;;9.50;6.00;;;;;6.62;65.74;102283.41;5058383;28;45436;-68
2022/01/20 06:57:04;;;;;;;;;10.25;8.75;;;;;6.63;65.99;102287.75;5040383;28;45390;-67
2022/01/20 06:59:30;;;;;;;;;9.50;6.25;;;;;6.62;65.64;102297.34;5058267;28;46326;-67
2022/01/20 07:01:56;;;;;;;;;10.50;9.25;;;;;6.62;65.69;102312.16;5057134;28;45452;-67
2022/01/20 07:04:22;;;;;;;;;7.00;5.50;;;;;6.56;66.16;102299.94;5058360;28;45618;-67
2022/01/20 07:06:48;;;;;;;;;2.25;2.25;;;;;6.56;66.45;102313.00;5057399;28;45529;-65
2022/01/20 07:09:13;;;;;;;;;8.75;6.75;;;;;6.59;66.15;102320.84;5056601;28;46005;-65
2022/01/20 07:11:39;;;;;;;;;8.25;8.25;;;;;6.65;65.86;102327.88;5068686;28;45442;-66
2022/01/20 07:14:05;;;;;;;;;5.25;5.25;;;;;6.63;66.03;102333.06;5057768;28;45520;-66
2022/01/20 07:16:31;;;;;;;;;6.75;6.00;;;;;6.59;65.72;102341.78;5060919;28;45478;-66
2022/01/20 07:18:57;;;;;;;;;7.25;7.25;;;;;6.59;66.26;102353.97;5057121;28;45569;-66
2022/01/20 07:21:23;;;;;;;;;10.00;10.00;;;;;6.55;65.91;102342.59;5057065;28;45602;-67
2022/01/20 07:23:49;;;;;;;;;8.50;8.50;;;;;6.59;66.37;102349.63;5057738;28;45409;-67
2022/01/20 07:26:15;;;;;;;;;8.25;5.00;;;;;6.58;66.14;102355.72;5057798;28;45495;-66
2022/01/20 07:28:40;;;;;;;;;11.00;7.25;;;;;6.51;65.89;102360.88;5057265;28;45642;-66
2022/01/20 07:31:06;;;;;;;;;6.25;6.25;;;;;6.48;66.34;102363.47;5039045;28;45374;-66
2022/01/20 07:33:32;;;;;;;;;9.50;9.50;;;;;6.48;66.26;102369.56;5052586;28;45325;-66
2022/01/20 07:35:57;;;;;;;;;6.25;4.00;;;;;6.47;66.28;102367.78;5047622;28;45343;-66
2022/01/20 07:38:22;;;;;;;;;10.50;6.50;;;;;6.45;66.31;102374.75;5056434;28;45473;-66
2022/01/20 07:40:49;;;;;;;;;6.75;6.75;;;;;6.49;66.28;102375.66;5057749;28;45410;-66
2022/01/20 07:43:14;;;;;;;;;7.75;7.75;;;;;6.49;66.53;102367.81;5056877;28;45488;-66
2022/01/20 07:45:39;;;;;;;;;8.00;7.00;;;;;6.44;66.37;102372.97;5056692;28;45457;-66
2022/01/20 07:48:05;;;;;;;;;6.75;6.50;;;;;6.50;66.21;102372.16;5057092;28;46061;-66
2022/01/20 07:50:31;;;;;;;;;5.00;5.00;;;;;6.49;66.54;102363.44;5056258;28;45790;-67
2022/01/20 07:52:56;;;;;;;;;7.25;6.00;;;;;6.50;66.45;102367.84;5057161;28;45371;-66
2022/01/20 07:55:22;;;;;;;;;5.00;5.00;;;;;6.51;66.85;102364.34;5056827;28;45389;-66
2022/01/20 07:57:47;;;;;;;;;7.25;7.25;;;;;6.54;66.62;102369.59;5056840;28;45397;-66
2022/01/20 08:00:14;;;;;;;;;8.50;6.00;;;;;6.54;66.33;102372.22;5056777;28;45343;-66
2022/01/20 08:02:39;;;;;;;;;7.00;6.00;;;;;6.51;66.94;102373.94;5056402;28;45381;-66
2022/01/20 08:05:05;;;;;;;;;7.00;7.00;;;;;6.57;66.43;102366.16;5056404;28;45683;-66
2022/01/20 08:07:30;;;;;;;;;6.50;5.50;;;;;6.57;66.56;102364.41;5056148;28;45450;-67
2022/01/20 08:09:59;;;;;;;;;6.25;6.25;;;;;6.64;66.73;102376.69;5056309;28;45551;-66
2022/01/20 08:12:25;;;;;;;;;11.50;6.25;;;;;6.69;66.16;102374.13;5056720;28;45459;-66
2022/01/20 08:14:51;;;;;;;;;6.00;5.50;;;;;6.73;66.60;102375.88;5057156;28;46065;-66
2022/01/20 08:17:16;;;;;;;;;9.00;6.25;;;;;6.73;65.97;102370.66;5055944;28;46281;-65
2022/01/20 08:19:42;;;;;;;;;10.00;7.25;;;;;6.71;66.49;102372.38;5056604;28;45521;-67
2022/01/20 08:22:07;;;;;;;;;7.00;7.00;;;;;6.72;65.75;102381.13;5057075;28;45467;-66
2022/01/20 08:24:32;;;;;;;;;6.25;6.00;;;;;6.74;66.13;102384.59;5056897;28;45319;-65
2022/01/20 08:26:58;;;;;;;;;6.00;5.00;;;;;6.76;65.67;102381.13;5056783;28;45441;-65
2022/01/20 08:29:23;;;;;;;;;15.75;12.50;;;;;6.79;65.99;102375.94;5055493;28;45480;-67
2022/01/20 08:31:49;;;;;;;;;11.25;10.00;;;;;6.76;66.03;102375.91;5056611;28;45437;-67
2022/01/20 08:34:15;;;;;;;;;12.25;9.75;;;;;6.79;65.44;102373.31;5056833;28;45591;-66
2022/01/20 08:36:41;;;;;;;;;11.00;10.00;;;;;6.81;65.56;102374.22;5056645;28;46116;-67
2022/01/20 08:41:51;;;;;;;;;12.75;10.25;;;;;6.81;65.92;102384.66;5056409;28;45423;-67
2022/01/20 08:44:16;;;;;;;;;13.00;9.75;;;;;6.85;66.33;102398.63;5055763;28;45386;-67
2022/01/20 08:46:42;;;;;;;;;10.25;10.25;;;;;6.90;65.71;102388.22;5055042;28;47891;-66
2022/01/20 08:49:07;;;;;;;;;11.25;10.75;;;;;6.94;65.71;102392.63;5056463;28;45528;-67
2022/01/20 08:51:33;;;;;;;;;12.00;10.50;;;;;6.95;65.70;102400.47;5055822;28;45396;-66
2022/01/20 08:53:58;;;;;;;;;13.25;11.00;;;;;6.94;65.61;102395.25;5056595;28;45507;-66
2022/01/20 08:56:24;;;;;;;;;11.75;10.75;;;;;7.00;65.38;102403.16;5056373;28;45436;-66
2022/01/20 08:58:49;;;;;;;;;13.25;9.75;;;;;6.99;65.37;102402.28;5037049;28;45472;-65
2022/01/20 09:01:14;;;;;;;;;7.75;6.00;;;;;7.02;65.89;102398.81;5055650;28;45546;-67
2022/01/20 09:03:40;;;;;;;;;11.00;10.00;;;;;7.02;65.96;102386.59;5055276;28;45662;-66
2022/01/20 09:06:06;;;;;;;;;13.25;10.50;;;;;7.03;66.16;102385.72;5056459;28;45472;-66
2022/01/20 09:08:31;;;;;;;;;11.00;11.00;;;;;7.08;66.14;102394.50;5055728;28;45555;-66
2022/01/20 09:10:57;;;;;;;;;10.50;8.50;;;;;7.07;65.53;102404.97;5055889;28;45431;-67
2022/01/20 09:16:06;;;;;;;;;13.50;11.00;;;;;7.12;65.91;102408.50;5055545;28;45901;-67
2022/01/20 09:18:32;;;;;;;;;10.25;10.00;;;;;7.12;65.98;102399.75;5055260;28;45412;-67
2022/01/20 09:20:57;;;;;;;;;10.75;8.50;;;;;7.12;65.32;102403.25;5055759;28;45464;-66
2022/01/20 09:23:23;;;;;;;;;13.50;11.75;;;;;7.10;65.09;102406.72;5055659;28;45425;-67
2022/01/20 09:25:49;;;;;;;;;14.00;14.00;;;;;7.06;65.61;102418.88;5055822;28;45462;-66
2022/01/20 09:28:16;;;;;;;;;11.25;11.25;;;;;7.08;65.71;102425.00;5037162;28;45435;-66
2022/01/20 09:30:41;;;;;;;;;9.75;7.75;;;;;7.12;66.15;102432.03;5054522;28;45534;-66
2022/01/20 09:35:37;;;;;;;;;12.50;10.75;;;;;7.13;65.36;102436.41;5055129;28;46280;-67
2022/01/20 09:38:04;;;;;;;;;12.75;11.00;;;;;7.12;65.85;102447.75;5054972;28;45340;-66
2022/01/20 09:40:32;;;;;;;;;13.75;11.00;;;;;7.19;65.53;102448.66;5043567;28;45612;-66
2022/01/20 09:42:58;;;;;;;;;11.50;11.50;;;;;7.19;65.85;102443.41;5035503;28;45585;-66
2022/01/20 09:45:25;;;;;;;;;13.25;13.25;;;;;7.23;65.97;102450.44;5034810;28;45480;-67
2022/01/20 09:47:50;;;;;;;;;15.50;11.75;;;;;7.22;65.27;102435.59;5045617;28;45519;-66
2022/01/20 09:50:19;;;;;;;;;12.00;11.25;;;;;7.25;65.60;102443.47;5055354;28;45492;-66
2022/01/20 09:52:46;;;;;;;;;15.00;12.25;;;;;7.26;65.81;102435.63;5041929;28;45635;-66
2022/01/20 09:55:11;;;;;;;;;12.75;12.00;;;;;7.29;65.73;102430.41;5038527;28;45937;-66
2022/01/20 09:57:37;;;;;;;;;11.00;11.00;;;;;7.28;65.78;102428.69;5054687;28;45452;-67
2022/01/20 10:00:07;;;;;;;;;10.00;10.00;;;;;7.29;65.60;102433.03;5037322;28;45414;-66
2022/01/20 10:02:32;;;;;;;;;11.50;11.50;;;;;7.29;65.29;102433.03;5054775;28;45460;-66
2022/01/20 10:04:57;;;;;;;;;12.75;12.00;;;;;7.32;65.98;102445.28;5036330;28;45414;-66
2022/01/20 10:07:31;;;;;;;;;15.00;12.75;;;;;7.34;65.16;102435.69;5054846;28;45511;-66
2022/01/20 10:09:56;;;;;;;;;15.25;15.25;;;;;7.33;65.62;102440.91;5055475;28;45555;-67
2022/01/20 10:12:28;;;;;;;;;12.00;12.00;;;;;7.38;65.96;102439.22;5055337;28;45492;-66
2022/01/20 10:14:56;;;;;;;;;12.25;12.00;;;;;7.42;65.80;102447.09;5055023;28;45435;-66
2022/01/20 10:17:28;;;;;;;;;13.50;11.00;;;;;7.42;65.15;102443.63;5038183;28;45618;-66
2022/01/20 10:20:04;;;;;;;;;13.00;13.00;;;;;7.43;65.37;102453.22;5034021;28;45470;-66
2022/01/20 10:22:32;;;;;;;;;13.75;13.75;;;;;7.44;65.43;102457.56;5053926;28;45579;-66
2022/01/20 10:24:59;;;;;;;;;14.25;12.50;;;;;7.49;65.56;102471.56;5057791;28;46079;-66
2022/01/20 10:27:24;;;;;;;;;11.00;11.00;;;;;7.50;65.75;102476.84;5061212;28;45366;-67
2022/01/20 10:30:03;;;;;;;;;15.50;14.25;;;;;7.56;65.57;102477.75;5057722;28;45523;-67
2022/01/20 10:32:39;;;;;;;;;16.25;15.00;;;;;7.59;65.21;102476.03;5057780;28;45439;-67
2022/01/20 10:35:06;;;;;;;;;18.75;15.00;;;;;7.59;65.37;102481.25;5039718;28;46378;-67
2022/01/20 10:37:31;;;;;;;;;14.75;14.00;;;;;7.61;64.85;102481.28;5058023;28;45456;-67
2022/01/20 10:40:23;;;;;;;;;15.75;12.75;;;;;7.62;65.72;102481.28;5057408;28;45368;-67
2022/01/20 10:42:48;;;;;;;;;15.00;15.00;;;;;7.67;64.41;102489.16;5053920;28;45331;-66
2022/01/20 10:45:22;;;;;;;;;14.75;13.50;;;;;7.65;64.91;102486.53;5056496;28;45493;-67
2022/01/20 10:47:53;;;;;;;;;20.75;18.00;;;;;7.66;65.11;102492.66;5057894;28;45495;-66
2022/01/20 10:50:23;;;;;;;;;17.50;14.25;;;;;7.69;65.29;102493.56;5058161;28;45403;-66
2022/01/20 10:52:52;;;;;;;;;17.50;15.25;;;;;7.73;64.88;102497.94;5037892;28;45670;-66
2022/01/20 10:55:31;;;;;;;;;15.25;14.25;;;;;7.74;65.23;102486.59;5038854;28;46132;-67
2022/01/20 10:58:12;;;;;;;;;15.25;15.25;;;;;7.73;64.93;102479.59;5056598;28;45463;-67
2022/01/20 11:00:46;;;;;;;;;20.50;12.75;;;;;7.82;65.12;102483.13;5057174;28;45479;-67
2022/01/20 11:03:12;;;;;;;;;15.75;15.25;;;;;7.85;64.44;102477.94;5056914;28;45453;-67
2022/01/20 11:05:39;;;;;;;;;17.25;11.75;;;;;7.85;64.75;102476.19;5057126;28;45489;-67
2022/01/20 11:08:06;;;;;;;;;14.50;14.25;;;;;7.89;64.27;102470.09;5057266;28;45503;-67
2022/01/20 11:10:32;;;;;;;;;17.00;14.50;;;;;7.91;64.43;102465.75;5056819;28;45590;-67
2022/01/20 11:12:57;;;;;;;;;16.00;15.50;;;;;7.92;64.08;102474.47;5056819;28;45685;-68
2022/01/20 11:15:24;;;;;;;;;13.75;13.75;;;;;7.92;64.24;102479.72;5056666;28;45796;-66
2022/01/20 11:17:55;;;;;;;;;17.25;17.00;;;;;7.90;64.21;102478.84;5038827;28;45922;-67
2022/01/20 11:20:24;;;;;;;;;17.75;15.25;;;;;7.84;63.85;102481.41;5057000;28;45521;-67
2022/01/20 11:23:01;;;;;;;;;16.50;15.25;;;;;7.82;64.03;102473.56;5056753;28;45448;-67
2022/01/20 11:25:30;;;;;;;;;16.75;15.75;;;;;7.85;64.85;102468.34;5056696;28;45464;-67
2022/01/20 11:28:10;;;;;;;;;11.75;11.75;;;;;7.86;64.64;102471.81;5056714;28;45541;-67
2022/01/20 11:30:42;;;;;;;;;14.00;12.50;;;;;7.86;63.97;102470.06;5055687;28;45449;-67
2022/01/20 11:33:10;;;;;;;;;16.00;13.25;;;;;7.94;64.56;102464.88;5056586;28;45595;-67
2022/01/20 11:35:45;;;;;;;;;15.25;13.50;;;;;7.94;64.45;102463.13;5054838;28;46571;-68
2022/01/20 11:38:13;;;;;;;;;16.75;14.75;;;;;8.00;64.57;102459.69;5056345;28;45441;-68
2022/01/20 11:40:54;;;;;;;;;16.00;13.00;;;;;8.01;63.91;102460.56;5057385;28;45464;-68
2022/01/20 11:43:33;;;;;;;;;12.00;12.00;;;;;7.97;63.51;102457.03;5038152;28;45388;-68
2022/01/20 11:46:27;;;;;;;;;16.25;12.25;;;;;7.99;64.04;102452.69;5055875;28;45482;-68
2022/01/20 11:49:06;;;;;;;;;16.75;14.50;;;;;8.02;63.51;102455.31;5054227;28;45507;-68
2022/01/20 11:51:58;;;;;;;;;16.00;12.50;;;;;8.10;64.14;102458.00;5056796;28;45570;-68
2022/01/20 11:54:23;;;;;;;;;13.00;11.00;;;;;8.12;63.27;102467.63;5054031;28;45522;-68
2022/01/20 11:56:48;;;;;;;;;16.25;16.00;;;;;8.16;62.84;102466.75;5056392;28;45590;-66
2022/01/20 11:59:15;;;;;;;;;12.75;12.75;;;;;8.21;62.81;102466.78;5056598;28;45388;-68
2022/01/20 12:01:48;;;;;;;;;12.25;12.00;;;;;8.18;62.72;102461.53;5056575;28;45476;-68
2022/01/20 12:04:16;;;;;;;;;14.00;14.00;;;;;8.20;62.55;102451.94;5056559;28;45496;-65
2022/01/20 12:06:47;;;;;;;;;17.50;14.00;;;;;8.23;62.59;102461.56;5056310;28;45610;-66
2022/01/20 12:09:14;;;;;;;;;15.75;13.75;;;;;8.28;62.46;102467.69;5056056;28;45479;-66
2022/01/20 12:11:41;;;;;;;;;11.50;10.00;;;;;8.31;62.45;102458.09;5056832;28;45405;-66
2022/01/20 12:14:08;;;;;;;;;13.25;11.25;;;;;8.32;62.18;102472.94;5055741;28;45428;-68
2022/01/20 12:16:35;;;;;;;;;9.50;7.00;;;;;8.30;61.35;102468.53;5055535;28;45561;-67
2022/01/20 12:19:02;;;;;;;;;7.75;7.75;;;;;8.23;60.77;102467.66;5036394;28;45457;-66
2022/01/20 12:21:32;;;;;;;;;12.50;10.00;;;;;8.22;61.52;102471.16;5056635;28;45591;-68
2022/01/20 12:23:58;;;;;;;;;10.00;8.25;;;;;8.19;61.49;102466.78;5056022;28;45614;-67
2022/01/20 12:26:24;;;;;;;;;7.50;6.25;;;;;8.22;60.73;102462.41;5056255;28;46118;-67
2022/01/20 12:29:19;;;;;;;;;11.75;8.00;;;;;8.18;61.14;102469.38;5054883;28;45447;-67
2022/01/20 12:31:48;;;;;;;;;6.00;6.00;;;;;8.21;60.40;102461.53;5040163;28;45523;-67
2022/01/20 12:34:13;;;;;;;;;6.50;6.00;;;;;8.22;60.60;102463.31;5057204;28;45349;-67
2022/01/20 12:36:39;;;;;;;;;7.25;6.50;;;;;8.23;60.36;102461.56;5055769;28;46078;-67